Time;durP1;ratioP1;P1;durP2;ratioP2;P2;SDS_P1;SDS_P2;PMS_P1;PMS_P2;Temp;Humidity;BMP_temperature;BMP_pressure;BME280_temperature;BME280_humidity;BME280_pressure;Samples;Min_cycle;Max_cycle;Signal;HPM_P1;HPM_P2
2023/06/24 20:06:32;;;;;;;3.83;3.40;;;;;;;;;;5090007;27;20388;-68
2023/06/24 20:08:58;;;;;;;3.83;3.53;;;;;;;;;;5071322;28;20024;-68
2023/06/24 20:11:24;;;;;;;6.07;3.80;;;;;;;;;;5061621;28;20132;-68
2023/06/24 20:13:49;;;;;;;4.13;3.47;;;;;;;;;;5061545;28;20128;-68
2023/06/24 20:16:15;;;;;;;3.80;3.50;;;;;;;;;;5060020;28;20116;-67
2023/06/24 20:18:41;;;;;;;3.75;3.45;;;;;;;;;;5060988;28;20041;-68
2023/06/24 20:21:06;;;;;;;6.03;3.33;;;;;;;;;;5061208;28;20028;-68
2023/06/24 20:23:32;;;;;;;3.92;3.60;;;;;;;;;;5059949;28;20037;-68
2023/06/24 20:25:58;;;;;;;3.72;3.42;;;;;;;;;;5060943;28;20032;-68
2023/06/24 20:28:23;;;;;;;4.85;3.60;;;;;;;;;;5060904;28;20884;-68
2023/06/24 20:30:49;;;;;;;3.72;3.42;;;;;;;;;;5061524;28;20080;-68
2023/06/24 20:33:14;;;;;;;5.43;3.75;;;;;;;;;;5061737;28;20033;-68
2023/06/24 20:35:40;;;;;;;5.43;3.67;;;;;;;;;;5058898;28;20112;-68
2023/06/24 20:38:06;;;;;;;4.07;3.65;;;;;;;;;;5061212;28;20063;-67
2023/06/24 20:40:31;;;;;;;4.10;3.70;;;;;;;;;;5067987;28;20403;-68
2023/06/24 20:42:57;;;;;;;4.10;3.70;;;;;;;;;;5061519;28;20028;-68
2023/06/24 20:45:23;;;;;;;4.50;4.10;;;;;;;;;;5065234;28;20060;-68
2023/06/24 20:47:48;;;;;;;3.80;3.40;;;;;;;;;;5050013;28;20122;-68
2023/06/24 20:50:14;;;;;;;4.18;3.70;;;;;;;;;;5060221;28;20044;-68
2023/06/24 20:52:41;;;;;;;4.43;3.72;;;;;;;;;;5060111;28;20373;-68
2023/06/24 20:55:07;;;;;;;3.58;3.25;;;;;;;;;;5060205;28;20476;-68
2023/06/24 20:57:32;;;;;;;4.97;3.47;;;;;;;;;;5060407;28;20040;-68
2023/06/24 20:59:58;;;;;;;3.75;3.45;;;;;;;;;;5060307;28;20035;-68
2023/06/24 21:02:24;;;;;;;4.05;3.65;;;;;;;;;;5059540;28;20073;-68
2023/06/24 21:04:49;;;;;;;3.47;3.17;;;;;;;;;;5059300;28;20032;-68
2023/06/24 21:07:15;;;;;;;4.05;3.70;;;;;;;;;;5059993;28;20139;-68
2023/06/24 21:09:40;;;;;;;3.75;3.45;;;;;;;;;;5054945;28;20032;-68
2023/06/24 21:12:06;;;;;;;4.97;3.40;;;;;;;;;;5058674;28;20683;-68
2023/06/24 21:14:32;;;;;;;4.55;3.47;;;;;;;;;;5059811;28;20560;-68
2023/06/24 21:16:57;;;;;;;5.65;3.65;;;;;;;;;;5051886;28;20041;-68
2023/06/24 21:19:23;;;;;;;4.13;3.50;;;;;;;;;;5045092;28;20037;-68
2023/06/24 21:21:48;;;;;;;5.13;3.90;;;;;;;;;;5043944;28;20033;-68
2023/06/24 21:24:14;;;;;;;3.63;3.33;;;;;;;;;;5046514;28;20029;-68
2023/06/24 21:26:41;;;;;;;4.00;3.70;;;;;;;;;;5047738;28;20164;-68
2023/06/24 21:29:06;;;;;;;4.50;3.75;;;;;;;;;;5053416;28;20040;-68
2023/06/24 21:31:32;;;;;;;4.13;3.72;;;;;;;;;;5052170;28;20091;-68
2023/06/24 21:33:58;;;;;;;4.95;4.18;;;;;;;;;;5047038;28;20052;-68
2023/06/24 21:36:23;;;;;;;4.22;3.88;;;;;;;;;;5053484;28;20028;-68
2023/06/24 21:38:51;;;;;;;4.18;3.78;;;;;;;;;;5051433;28;20063;-68
2023/06/24 21:41:16;;;;;;;4.72;3.75;;;;;;;;;;5048979;28;20111;-68
2023/06/24 21:43:42;;;;;;;4.10;3.80;;;;;;;;;;5051162;28;20120;-68
2023/06/24 21:46:08;;;;;;;4.20;3.80;;;;;;;;;;5048677;28;20021;-68
2023/06/24 21:48:33;;;;;;;4.32;3.90;;;;;;;;;;5046469;28;20047;-68
2023/06/24 21:50:59;;;;;;;4.30;3.90;;;;;;;;;;5046854;28;20029;-68
2023/06/24 21:53:24;;;;;;;6.75;4.32;;;;;;;;;;5045864;28;20048;-68
2023/06/24 21:55:50;;;;;;;5.30;4.03;;;;;;;;;;5047064;28;20031;-68
2023/06/24 21:58:15;;;;;;;9.65;4.40;;;;;;;;;;5046142;28;20668;-68
2023/06/24 22:00:42;;;;;;;5.63;4.38;;;;;;;;;;5046006;28;20036;-67
2023/06/24 22:03:08;;;;;;;4.97;4.07;;;;;;;;;;5045468;28;20094;-68
2023/06/24 22:05:33;;;;;;;4.95;4.45;;;;;;;;;;5048625;28;20049;-68
2023/06/24 22:07:59;;;;;;;5.30;3.97;;;;;;;;;;5048490;28;20036;-68
2023/06/24 22:10:25;;;;;;;5.05;4.30;;;;;;;;;;5049694;28;20040;-68
2023/06/24 22:12:50;;;;;;;5.53;4.50;;;;;;;;;;5049932;28;20036;-68
2023/06/24 22:15:16;;;;;;;6.97;5.00;;;;;;;;;;5050555;28;20060;-68
2023/06/24 22:17:41;;;;;;;12.85;8.80;;;;;;;;;;5051989;28;20112;-68
2023/06/24 22:20:07;;;;;;;10.80;6.72;;;;;;;;;;5051853;28;20095;-68
2023/06/24 22:22:33;;;;;;;9.18;5.85;;;;;;;;;;5055469;28;20060;-68
2023/06/24 22:24:58;;;;;;;9.43;6.38;;;;;;;;;;5050255;28;20059;-68
2023/06/24 22:27:24;;;;;;;10.45;6.38;;;;;;;;;;5054593;28;20069;-68
2023/06/24 22:29:49;;;;;;;7.80;6.00;;;;;;;;;;5049480;28;20115;-68
2023/06/24 22:32:15;;;;;;;13.93;6.82;;;;;;;;;;5053482;28;20040;-68
2023/06/24 22:34:41;;;;;;;11.23;6.03;;;;;;;;;;5051391;28;20468;-68
2023/06/24 22:37:07;;;;;;;13.75;7.03;;;;;;;;;;5052508;28;20098;-68
2023/06/24 22:39:32;;;;;;;7.68;5.82;;;;;;;;;;5047026;28;20036;-67
2023/06/24 22:41:58;;;;;;;11.73;6.60;;;;;;;;;;5044382;28;20041;-68
2023/06/24 22:44:23;;;;;;;8.55;5.13;;;;;;;;;;5045787;28;20040;-67
2023/06/24 22:46:49;;;;;;;7.78;4.88;;;;;;;;;;5043045;28;20447;-68
2023/06/24 22:49:15;;;;;;;10.52;5.43;;;;;;;;;;5045826;28;20041;-68
2023/06/24 22:51:40;;;;;;;10.52;6.68;;;;;;;;;;5045144;28;20079;-68
2023/06/24 22:54:06;;;;;;;9.25;5.35;;;;;;;;;;5046012;28;20048;-68
2023/06/24 22:56:31;;;;;;;7.88;5.75;;;;;;;;;;5045605;28;20515;-67
2023/06/24 22:58:57;;;;;;;7.72;5.47;;;;;;;;;;5075880;28;20399;-68
2023/06/24 23:01:22;;;;;;;5.60;4.50;;;;;;;;;;5041368;28;20155;-68
2023/06/24 23:03:48;;;;;;;5.68;4.65;;;;;;;;;;5045085;28;20033;-68
2023/06/24 23:06:14;;;;;;;5.20;4.38;;;;;;;;;;5044445;28;20154;-68
2023/06/24 23:08:40;;;;;;;6.50;4.30;;;;;;;;;;5044654;28;20118;-68
2023/06/24 23:11:05;;;;;;;7.43;4.22;;;;;;;;;;5041795;28;20033;-68
2023/06/24 23:13:32;;;;;;;7.35;4.80;;;;;;;;;;5044712;28;20033;-67
2023/06/24 23:15:58;;;;;;;5.50;4.70;;;;;;;;;;5044263;28;20112;-68
2023/06/24 23:18:24;;;;;;;6.13;4.20;;;;;;;;;;5043591;28;20041;-67
2023/06/24 23:20:54;;;;;;;6.82;4.68;;;;;;;;;;5042180;28;20052;-67
2023/06/24 23:23:20;;;;;;;5.95;4.15;;;;;;;;;;5045090;28;20637;-67
2023/06/24 23:25:51;;;;;;;6.13;4.53;;;;;;;;;;5044744;28;20055;-68
2023/06/24 23:28:17;;;;;;;4.60;4.20;;;;;;;;;;5044032;28;20059;-68
2023/06/24 23:30:47;;;;;;;4.90;4.32;;;;;;;;;;5045050;28;20100;-68
2023/06/24 23:33:17;;;;;;;4.22;3.70;;;;;;;;;;5043607;28;20040;-67
2023/06/24 23:35:48;;;;;;;5.30;4.80;;;;;;;;;;5045327;28;20108;-67
2023/06/24 23:38:13;;;;;;;5.95;4.53;;;;;;;;;;5076287;28;20033;-67
2023/06/24 23:40:40;;;;;;;4.80;4.30;;;;;;;;;;5044850;28;20044;-67
2023/06/24 23:43:06;;;;;;;6.50;4.45;;;;;;;;;;5044936;28;20037;-67
2023/06/24 23:45:32;;;;;;;4.78;4.30;;;;;;;;;;5044339;28;20672;-67
2023/06/24 23:47:57;;;;;;;5.60;4.95;;;;;;;;;;5044635;28;20032;-67
2023/06/24 23:50:23;;;;;;;7.15;5.05;;;;;;;;;;5044606;28;20592;-67
2023/06/24 23:52:48;;;;;;;9.85;5.93;;;;;;;;;;5041448;28;20044;-67
2023/06/24 23:55:14;;;;;;;12.93;5.93;;;;;;;;;;5043569;28;20083;-68
2023/06/24 23:57:40;;;;;;;10.98;7.35;;;;;;;;;;5044707;28;20588;-67
